createdAt,value
2022-08-08T00:00:53.324Z,8.63
2022-08-08T00:03:32.298Z,9.30
2022-08-08T00:06:48.381Z,9.47
2022-08-08T00:10:06.164Z,7.70
2022-08-08T00:14:15.382Z,9.33
2022-08-08T00:16:57.296Z,10.10
2022-08-08T00:20:07.601Z,8.57
2022-08-08T00:23:42.383Z,8.17
2022-08-08T00:26:56.283Z,9.37
2022-08-08T00:30:11.313Z,8.30
2022-08-08T00:33:25.429Z,9.63
2022-08-08T00:37:03.920Z,8.67
2022-08-08T00:41:12.597Z,10.00
2022-08-08T00:44:49.145Z,9.13
2022-08-08T00:48:40.167Z,8.53
2022-08-08T00:52:19.526Z,10.00
2022-08-08T00:56:29.466Z,8.10
2022-08-08T01:00:09.208Z,8.97
2022-08-08T01:04:04.563Z,8.90
2022-08-08T01:08:00.907Z,11.80
2022-08-08T01:11:55.396Z,10.50
2022-08-08T01:16:00.460Z,10.33
2022-08-08T01:20:03.294Z,11.63
2022-08-08T01:24:16.837Z,10.70
2022-08-08T01:27:59.429Z,13.63
2022-08-08T01:32:15.879Z,10.10
2022-08-08T01:36:32.761Z,8.67
2022-08-08T01:40:04.598Z,11.13
2022-08-08T01:43:34.443Z,10.30
2022-08-08T01:46:52.505Z,9.60
2022-08-08T01:50:17.136Z,9.43
2022-08-08T01:54:33.266Z,10.50
2022-08-08T01:58:04.212Z,10.00
2022-08-08T02:01:09.006Z,9.70
2022-08-08T02:04:38.343Z,9.07
2022-08-08T02:08:07.217Z,10.57
2022-08-08T02:11:52.904Z,11.80
2022-08-08T02:15:05.198Z,11.17
2022-08-08T02:18:24.230Z,9.27
2022-08-08T02:22:00.761Z,11.60
2022-08-08T02:25:20.387Z,13.33
2022-08-08T02:28:51.679Z,13.53
2022-08-08T02:32:22.738Z,10.83
2022-08-08T02:36:03.284Z,12.47
2022-08-08T02:39:41.026Z,9.93
2022-08-08T02:44:39.010Z,9.83
2022-08-08T02:48:26.289Z,9.27
2022-08-08T02:52:35.320Z,8.83
2022-08-08T02:56:42.403Z,8.47
2022-08-08T03:00:39.106Z,9.67
2022-08-08T03:05:09.243Z,9.47
2022-08-08T03:09:20.750Z,9.27
2022-08-08T03:13:34.058Z,9.20
2022-08-08T03:16:53.411Z,10.27
2022-08-08T03:20:08.032Z,12.17
2022-08-08T03:23:17.869Z,10.87
2022-08-08T03:26:42.136Z,11.23
2022-08-08T03:29:56.269Z,11.17
2022-08-08T03:33:56.819Z,11.27
2022-08-08T03:36:43.065Z,10.20
2022-08-08T03:39:52.098Z,8.37
2022-08-08T03:43:16.368Z,11.63
2022-08-08T03:46:25.537Z,10.60
2022-08-08T03:49:59.775Z,10.47
2022-08-08T03:53:07.347Z,9.73
2022-08-08T03:56:32.047Z,13.53
2022-08-08T03:59:59.525Z,14.47
2022-08-08T04:03:03.953Z,13.03
2022-08-08T04:06:09.367Z,14.80
2022-08-08T04:09:18.199Z,14.07
2022-08-08T04:12:23.830Z,14.60
2022-08-08T04:15:38.191Z,13.40
2022-08-08T04:18:45.053Z,11.37
2022-08-08T04:21:52.385Z,13.93
2022-08-08T04:24:58.563Z,13.57
2022-08-08T04:28:36.676Z,13.90
2022-08-08T04:31:30.785Z,11.10
2022-08-08T04:34:55.809Z,12.53
2022-08-08T04:38:02.321Z,14.13
2022-08-08T04:41:07.702Z,15.00
2022-08-08T04:44:12.841Z,13.70
2022-08-08T04:47:17.159Z,12.60
2022-08-08T04:50:24.743Z,14.17
2022-08-08T04:54:36.564Z,12.20
2022-08-08T04:56:56.665Z,14.50
2022-08-08T05:00:02.959Z,12.83
2022-08-08T05:03:06.556Z,13.53
2022-08-08T05:06:25.405Z,14.43
2022-08-08T05:09:29.745Z,12.37
2022-08-08T05:12:59.788Z,14.97
2022-08-08T05:16:53.003Z,12.90
2022-08-08T05:20:12.399Z,14.13
2022-08-08T05:22:53.019Z,13.27
2022-08-08T05:26:00.399Z,13.67
2022-08-08T05:29:08.344Z,12.33
2022-08-08T05:32:15.969Z,13.17
2022-08-08T05:35:23.535Z,12.23
2022-08-08T05:38:32.129Z,11.93
2022-08-08T05:41:55.089Z,11.07
2022-08-08T05:45:10.142Z,10.97
2022-08-08T05:48:31.917Z,9.83
2022-08-08T05:51:48.800Z,8.27
2022-08-08T05:54:55.833Z,9.23
2022-08-08T05:58:17.319Z,10.57
2022-08-08T06:01:55.589Z,6.27
2022-08-08T06:05:01.588Z,7.88
2022-08-08T06:08:28.130Z,9.13
2022-08-08T06:11:45.756Z,8.73
2022-08-08T06:14:50.775Z,8.50
2022-08-08T06:18:18.699Z,8.43
2022-08-08T06:21:33.221Z,7.50
2022-08-08T06:24:54.237Z,9.03
2022-08-08T06:28:04.943Z,7.67
2022-08-08T06:31:15.557Z,10.43
2022-08-08T06:34:28.445Z,7.20
2022-08-08T06:37:38.319Z,6.30
2022-08-08T06:40:48.395Z,8.53
2022-08-08T06:44:03.400Z,9.40
2022-08-08T06:47:07.970Z,9.33
2022-08-08T06:50:17.522Z,6.43
2022-08-08T06:53:39.746Z,9.70
2022-08-08T06:56:55.071Z,9.30
2022-08-08T07:00:10.539Z,8.90
2022-08-08T07:04:37.445Z,10.73
2022-08-08T07:07:10.312Z,7.83
2022-08-08T07:10:21.139Z,8.60
2022-08-08T07:13:38.629Z,10.07
2022-08-08T07:17:09.184Z,7.47
2022-08-08T07:20:19.952Z,11.97
2022-08-08T07:24:01.793Z,10.03
2022-08-08T07:27:04.834Z,9.30
2022-08-08T07:30:13.955Z,6.17
2022-08-08T07:33:23.775Z,6.23
2022-08-08T07:36:30.468Z,7.23
2022-08-08T07:39:56.236Z,6.37
2022-08-08T07:43:04.159Z,6.50
2022-08-08T07:46:23.436Z,4.07
2022-08-08T07:49:34.083Z,3.20
2022-08-08T07:52:43.795Z,5.87
2022-08-08T07:55:52.735Z,4.90
2022-08-08T07:58:58.355Z,4.57
2022-08-08T08:02:33.135Z,2.10
2022-08-08T08:05:34.247Z,3.00
2022-08-08T08:08:51.949Z,3.17
2022-08-08T08:11:58.021Z,3.73
2022-08-08T08:15:08.367Z,3.63
2022-08-08T08:18:14.320Z,4.20
2022-08-08T08:21:19.298Z,4.73
2022-08-08T08:24:26.698Z,5.67
2022-08-08T08:27:34.739Z,4.67
2022-08-08T08:30:40.948Z,3.47
2022-08-08T08:33:50.576Z,4.40
2022-08-08T08:36:56.059Z,4.03
2022-08-08T08:40:02.655Z,6.67
2022-08-08T08:43:15.269Z,2.33
2022-08-08T08:46:25.690Z,3.90
2022-08-08T08:49:34.766Z,3.67
2022-08-08T08:52:59.429Z,2.37
2022-08-08T08:56:04.431Z,4.17
2022-08-08T08:59:15.655Z,2.90
2022-08-08T09:02:27.172Z,4.40
2022-08-08T09:05:53.956Z,5.33
2022-08-08T09:09:04.723Z,3.63
2022-08-08T09:12:11.397Z,5.10
2022-08-08T09:15:41.496Z,2.53
2022-08-08T09:18:47.229Z,2.20
2022-08-08T09:21:57.186Z,4.17
2022-08-08T09:25:10.736Z,2.43
2022-08-08T09:28:31.602Z,3.77
2022-08-08T09:31:56.408Z,1.60
2022-08-08T09:35:08.380Z,2.57
2022-08-08T09:38:24.631Z,2.47
2022-08-08T09:42:14.453Z,3.10
2022-08-08T09:45:15.778Z,3.50
2022-08-08T09:48:43.070Z,4.30
2022-08-08T09:52:06.153Z,2.77
2022-08-08T09:55:17.208Z,3.23
2022-08-08T09:58:26.180Z,1.73
2022-08-08T10:01:59.244Z,3.27
2022-08-08T10:05:14.467Z,1.17
2022-08-08T10:08:22.260Z,3.50
2022-08-08T10:12:27.985Z,2.67
2022-08-08T10:15:02.855Z,2.27
2022-08-08T10:18:28.024Z,3.53
2022-08-08T10:21:42.515Z,3.53
2022-08-08T10:25:03.110Z,3.37
2022-08-08T10:28:17.243Z,2.50
2022-08-08T10:31:47.396Z,3.17
2022-08-08T10:35:00.448Z,1.27
2022-08-08T10:38:08.630Z,2.37
2022-08-08T10:41:20.027Z,2.23
2022-08-08T10:44:35.940Z,2.90
2022-08-08T10:47:48.777Z,1.90
2022-08-08T10:50:59.388Z,3.00
2022-08-08T10:54:03.506Z,4.77
2022-08-08T10:57:09.143Z,4.17
2022-08-08T11:00:16.326Z,2.10
2022-08-08T11:03:52.850Z,3.10
2022-08-08T11:06:49.683Z,4.83
2022-08-08T11:09:53.415Z,5.47
2022-08-08T11:13:28.384Z,3.50
2022-08-08T11:16:33.130Z,2.77
2022-08-08T11:19:38.711Z,4.17
2022-08-08T11:22:43.497Z,2.20
2022-08-08T11:25:56.881Z,4.40
2022-08-08T11:29:06.859Z,4.83
2022-08-08T11:32:14.931Z,2.93
2022-08-08T11:35:27.759Z,2.57
2022-08-08T11:38:53.965Z,4.07
2022-08-08T11:42:00.357Z,3.23
2022-08-08T11:45:08.794Z,3.27
2022-08-08T11:48:20.332Z,4.73
2022-08-08T11:51:38.897Z,2.00
2022-08-08T11:54:51.459Z,2.40
2022-08-08T11:58:15.010Z,3.10
2022-08-08T12:01:38.848Z,3.23
2022-08-08T12:04:43.432Z,1.60
2022-08-08T12:07:53.856Z,3.50
2022-08-08T12:11:05.473Z,4.00
2022-08-08T12:14:10.909Z,2.30
2022-08-08T12:17:16.651Z,2.47
2022-08-08T12:20:21.048Z,2.27
2022-08-08T12:23:43.151Z,1.73
2022-08-08T12:26:58.736Z,1.17
2022-08-08T12:30:02.848Z,2.63
2022-08-08T12:33:22.515Z,1.30
2022-08-08T12:36:46.401Z,1.77
2022-08-08T12:40:01.189Z,2.50
2022-08-08T12:43:06.679Z,1.00
2022-08-08T12:46:19.113Z,1.93
2022-08-08T12:49:43.840Z,3.60
2022-08-08T12:52:56.215Z,0.90
2022-08-08T12:56:17.423Z,2.03
2022-08-08T12:59:36.286Z,2.07
2022-08-08T13:03:00.859Z,4.57
2022-08-08T13:06:20.536Z,2.07
2022-08-08T13:09:57.769Z,3.30
2022-08-08T13:13:06.146Z,3.37
2022-08-08T13:16:25.692Z,1.10
2022-08-08T13:19:49.928Z,2.43
2022-08-08T13:26:22.453Z,3.33
2022-08-08T13:29:28.587Z,2.60
2022-08-08T13:32:45.489Z,2.23
2022-08-08T13:35:51.897Z,2.00
2022-08-08T13:39:00.142Z,2.93
2022-08-08T13:42:05.810Z,0.80
2022-08-08T13:45:14.970Z,2.03
2022-08-08T13:48:25.355Z,2.10
2022-08-08T13:51:37.597Z,2.70
2022-08-08T13:54:49.455Z,1.53
2022-08-08T13:58:08.272Z,2.20
2022-08-08T14:01:19.642Z,2.33
2022-08-08T14:04:28.590Z,1.70
2022-08-08T14:07:36.194Z,2.60
2022-08-08T14:10:43.184Z,1.97
2022-08-08T14:14:00.144Z,4.03
2022-08-08T14:17:06.766Z,1.50
2022-08-08T14:20:56.667Z,2.50
2022-08-08T14:24:06.849Z,1.20
2022-08-08T14:27:20.805Z,3.57
2022-08-08T14:30:36.099Z,2.03
2022-08-08T14:33:40.248Z,0.67
2022-08-08T14:36:51.819Z,2.57
2022-08-08T14:40:05.617Z,2.67
2022-08-08T14:43:31.159Z,3.37
2022-08-08T14:46:35.482Z,0.90
2022-08-08T14:50:02.550Z,1.20
2022-08-08T14:53:08.116Z,1.77
2022-08-08T14:56:12.948Z,1.00
2022-08-08T14:59:22.463Z,1.27
2022-08-08T15:02:35.618Z,1.80
2022-08-08T15:05:52.346Z,1.97
2022-08-08T15:08:59.736Z,2.33
2022-08-08T15:12:04.099Z,1.57
2022-08-08T15:15:11.238Z,0.83
2022-08-08T15:18:22.741Z,2.27
2022-08-08T15:21:33.573Z,1.30
2022-08-08T15:24:41.757Z,1.50
2022-08-08T15:28:05.147Z,2.17
2022-08-08T15:31:10.643Z,1.53
2022-08-08T15:34:32.169Z,1.23
2022-08-08T15:37:36.296Z,3.03
2022-08-08T15:40:40.936Z,2.00
2022-08-08T15:44:01.285Z,1.53
2022-08-08T15:47:15.291Z,1.27
2022-08-08T15:50:22.534Z,1.30
2022-08-08T15:53:40.631Z,0.77
2022-08-08T15:56:53.839Z,1.07
2022-08-08T16:00:26.253Z,1.47
2022-08-08T16:03:25.043Z,0.57
2022-08-08T16:06:31.140Z,2.33
2022-08-08T16:13:09.625Z,1.53
2022-08-08T16:13:10.006Z,3.20
2022-08-08T16:16:23.014Z,2.47
2022-08-08T16:19:29.945Z,2.70
2022-08-08T16:22:33.668Z,1.70
2022-08-08T16:25:46.101Z,2.63
2022-08-08T16:28:58.559Z,3.30
2022-08-08T16:32:03.867Z,2.10
2022-08-08T16:35:23.164Z,2.43
2022-08-08T16:38:31.705Z,3.56
2022-08-08T16:41:35.586Z,1.13
2022-08-08T16:44:39.361Z,4.07
2022-08-08T16:47:51.348Z,1.57
2022-08-08T16:50:56.429Z,4.63
2022-08-08T16:55:02.065Z,3.03
2022-08-08T16:58:14.438Z,5.23
2022-08-08T17:00:48.861Z,2.57
2022-08-08T17:04:01.251Z,6.13
2022-08-08T17:07:08.954Z,2.33
2022-08-08T17:10:19.143Z,3.90
2022-08-08T17:13:23.487Z,2.87
2022-08-08T17:16:31.541Z,3.20
2022-08-08T17:19:41.090Z,1.30
2022-08-08T17:22:57.270Z,1.87
2022-08-08T17:26:11.560Z,1.63
2022-08-08T17:29:15.387Z,1.20
2022-08-08T17:32:34.256Z,3.70
2022-08-08T17:36:10.936Z,1.33
2022-08-08T17:39:22.722Z,1.63
2022-08-08T17:42:41.631Z,2.40
2022-08-08T17:45:51.164Z,2.07
2022-08-08T17:48:55.741Z,0.87
2022-08-08T17:51:59.881Z,1.43
2022-08-08T17:56:03.535Z,1.43
2022-08-08T17:58:31.622Z,2.30
2022-08-08T18:01:51.480Z,2.00
2022-08-08T18:04:58.677Z,1.40
2022-08-08T18:08:06.558Z,3.57
2022-08-08T18:11:23.142Z,3.13
2022-08-08T18:14:28.113Z,2.63
2022-08-08T18:18:10.180Z,2.83
2022-08-08T18:20:59.722Z,1.63
2022-08-08T18:24:04.854Z,1.60
2022-08-08T18:27:17.072Z,2.50
2022-08-08T18:30:21.955Z,3.30
2022-08-08T18:34:10.300Z,3.80
2022-08-08T18:36:50.883Z,1.60
2022-08-08T18:39:55.974Z,1.50
2022-08-08T18:43:01.158Z,4.73
2022-08-08T18:46:55.277Z,2.13
2022-08-08T18:49:57.631Z,2.80
2022-08-08T18:53:03.328Z,2.80
2022-08-08T18:56:07.999Z,4.67
2022-08-08T18:59:13.752Z,2.83
2022-08-08T19:02:27.976Z,2.77
2022-08-08T19:05:46.456Z,2.70
2022-08-08T19:08:51.808Z,3.47
2022-08-08T19:11:55.849Z,4.73
2022-08-08T19:15:01.912Z,2.17
2022-08-08T19:18:32.183Z,3.20
2022-08-08T19:21:33.070Z,2.43
2022-08-08T19:24:42.770Z,2.10
2022-08-08T19:28:01.495Z,1.43
2022-08-08T19:31:09.173Z,1.23
2022-08-08T19:34:35.516Z,3.30
2022-08-08T19:37:43.147Z,1.20
2022-08-08T19:40:55.719Z,1.40
2022-08-08T19:44:03.840Z,2.70
2022-08-08T19:47:24.783Z,3.73
2022-08-08T19:50:29.095Z,1.50
2022-08-08T19:53:52.788Z,2.67
2022-08-08T19:56:57.728Z,1.63
2022-08-08T20:00:02.198Z,2.23
2022-08-08T20:04:01.711Z,2.77
2022-08-08T20:06:40.624Z,2.70
2022-08-08T20:09:45.236Z,2.73
2022-08-08T20:13:12.868Z,3.70
2022-08-08T20:16:29.570Z,3.27
2022-08-08T20:19:42.387Z,3.47
2022-08-08T20:22:48.912Z,2.33
2022-08-08T20:25:58.263Z,3.03
2022-08-08T20:29:03.078Z,3.90
2022-08-08T20:32:13.233Z,3.97
2022-08-08T20:35:18.471Z,6.40
2022-08-08T20:38:31.958Z,3.23
2022-08-08T20:41:37.007Z,4.67
2022-08-08T20:44:45.097Z,3.97
2022-08-08T20:47:50.290Z,4.87
2022-08-08T20:51:03.410Z,4.70
2022-08-08T20:54:10.622Z,4.50
2022-08-08T20:57:29.099Z,2.33
2022-08-08T21:00:35.035Z,6.83
2022-08-08T21:03:55.685Z,3.43
2022-08-08T21:07:08.236Z,3.67
2022-08-08T21:10:13.054Z,8.03
2022-08-08T21:13:16.932Z,3.23
2022-08-08T21:16:28.630Z,3.43
2022-08-08T21:19:44.153Z,2.60
2022-08-08T21:22:50.649Z,4.27
2022-08-08T21:25:54.770Z,5.73
2022-08-08T21:29:00.550Z,4.80
2022-08-08T21:32:07.690Z,5.17
2022-08-08T21:36:14.562Z,4.90
2022-08-08T21:38:43.168Z,3.00
2022-08-08T21:41:58.875Z,4.57
2022-08-08T21:45:44.651Z,4.17
2022-08-08T21:48:35.356Z,4.73
2022-08-08T21:54:27.375Z,4.00
2022-08-08T21:55:22.493Z,3.50
2022-08-08T21:58:37.578Z,5.57
2022-08-08T22:01:42.611Z,4.00
2022-08-08T22:04:46.462Z,5.00
2022-08-08T22:07:50.248Z,2.93
2022-08-08T22:10:55.776Z,4.57
2022-08-08T22:13:59.534Z,5.43
2022-08-08T22:17:03.824Z,4.73
2022-08-08T22:20:10.576Z,7.47
2022-08-08T22:23:16.905Z,6.33
2022-08-08T22:26:28.923Z,4.77
2022-08-08T22:29:58.672Z,7.80
2022-08-08T22:32:58.240Z,4.73
2022-08-08T22:36:04.466Z,8.90
2022-08-08T22:39:18.976Z,6.43
2022-08-08T22:42:27.380Z,5.77
2022-08-08T22:45:35.417Z,3.83
2022-08-08T22:48:39.230Z,4.47
2022-08-08T22:51:47.303Z,7.27
2022-08-08T22:54:55.947Z,3.30
2022-08-08T22:58:04.524Z,4.83
2022-08-08T23:01:26.464Z,6.00
2022-08-08T23:04:36.180Z,3.70
2022-08-08T23:07:51.309Z,5.50
2022-08-08T23:11:06.322Z,5.50
2022-08-08T23:14:19.136Z,3.23
2022-08-08T23:17:24.980Z,5.83
2022-08-08T23:20:33.979Z,3.50
2022-08-08T23:23:48.300Z,6.50
2022-08-08T23:26:55.448Z,4.70
2022-08-08T23:30:02.712Z,5.13
2022-08-08T23:33:06.551Z,5.13
2022-08-08T23:36:26.057Z,7.27
2022-08-08T23:39:41.787Z,4.83
2022-08-08T23:42:53.490Z,4.33
2022-08-08T23:49:07.121Z,4.27
2022-08-08T23:49:23.366Z,4.80
2022-08-08T23:52:27.819Z,5.83
2022-08-08T23:55:31.961Z,3.23
2022-08-08T23:58:37.970Z,6.50
